sensor_id;sensor_type;location;lat;lon;timestamp;P1;durP1;ratioP1;P2;durP2;ratioP2
76433;SDS011;65265;53.200;6.080;2023-07-30T00:02:22;13.65;;;3.53;;
76433;SDS011;65265;53.200;6.080;2023-07-30T00:07:13;20.73;;;4.97;;
76433;SDS011;65265;53.200;6.080;2023-07-30T00:12:07;12.90;;;3.33;;
76433;SDS011;65265;53.200;6.080;2023-07-30T00:16:59;11.13;;;3.40;;
76433;SDS011;65265;53.200;6.080;2023-07-30T00:21:51;16.77;;;3.88;;
76433;SDS011;65265;53.200;6.080;2023-07-30T00:26:43;6.70;;;3.00;;
76433;SDS011;65265;53.200;6.080;2023-07-30T00:31:35;10.65;;;3.78;;
76433;SDS011;65265;53.200;6.080;2023-07-30T00:36:27;12.70;;;3.30;;
76433;SDS011;65265;53.200;6.080;2023-07-30T00:41:18;10.82;;;3.28;;
76433;SDS011;65265;53.200;6.080;2023-07-30T00:46:10;18.52;;;4.53;;
76433;SDS011;65265;53.200;6.080;2023-07-30T00:51:03;16.70;;;3.97;;
76433;SDS011;65265;53.200;6.080;2023-07-30T00:55:55;10.77;;;3.13;;
76433;SDS011;65265;53.200;6.080;2023-07-30T01:00:47;12.32;;;4.65;;
76433;SDS011;65265;53.200;6.080;2023-07-30T01:05:39;12.35;;;3.97;;
76433;SDS011;65265;53.200;6.080;2023-07-30T01:10:32;17.60;;;3.45;;
76433;SDS011;65265;53.200;6.080;2023-07-30T01:15:24;15.68;;;4.20;;
76433;SDS011;65265;53.200;6.080;2023-07-30T01:20:15;14.02;;;3.30;;
76433;SDS011;65265;53.200;6.080;2023-07-30T01:25:08;19.10;;;3.60;;
76433;SDS011;65265;53.200;6.080;2023-07-30T01:30:01;11.85;;;3.22;;
76433;SDS011;65265;53.200;6.080;2023-07-30T01:34:57;8.50;;;3.25;;
76433;SDS011;65265;53.200;6.080;2023-07-30T01:39:49;18.73;;;3.15;;
76433;SDS011;65265;53.200;6.080;2023-07-30T01:44:43;15.05;;;3.85;;
76433;SDS011;65265;53.200;6.080;2023-07-30T01:49:34;13.75;;;3.00;;
76433;SDS011;65265;53.200;6.080;2023-07-30T01:54:26;16.58;;;3.78;;
76433;SDS011;65265;53.200;6.080;2023-07-30T01:59:17;15.55;;;3.80;;
76433;SDS011;65265;53.200;6.080;2023-07-30T02:04:10;12.05;;;2.78;;
76433;SDS011;65265;53.200;6.080;2023-07-30T02:09:01;16.40;;;4.15;;
76433;SDS011;65265;53.200;6.080;2023-07-30T02:13:53;16.92;;;3.42;;
76433;SDS011;65265;53.200;6.080;2023-07-30T02:18:45;12.38;;;2.60;;
76433;SDS011;65265;53.200;6.080;2023-07-30T02:23:38;17.13;;;3.63;;
76433;SDS011;65265;53.200;6.080;2023-07-30T02:28:30;17.83;;;3.55;;
76433;SDS011;65265;53.200;6.080;2023-07-30T02:33:21;14.07;;;3.00;;
76433;SDS011;65265;53.200;6.080;2023-07-30T02:38:13;19.08;;;2.65;;
76433;SDS011;65265;53.200;6.080;2023-07-30T02:43:06;15.65;;;3.40;;
76433;SDS011;65265;53.200;6.080;2023-07-30T02:47:57;13.18;;;3.08;;
76433;SDS011;65265;53.200;6.080;2023-07-30T02:52:49;13.50;;;2.80;;
76433;SDS011;65265;53.200;6.080;2023-07-30T02:57:40;16.83;;;3.75;;
76433;SDS011;65265;53.200;6.080;2023-07-30T03:02:33;13.13;;;2.55;;
76433;SDS011;65265;53.200;6.080;2023-07-30T03:07:24;20.00;;;4.13;;
76433;SDS011;65265;53.200;6.080;2023-07-30T03:12:16;8.25;;;2.25;;
76433;SDS011;65265;53.200;6.080;2023-07-30T03:17:08;18.52;;;3.17;;
76433;SDS011;65265;53.200;6.080;2023-07-30T03:22:01;11.65;;;3.13;;
76433;SDS011;65265;53.200;6.080;2023-07-30T03:26:52;8.18;;;3.80;;
76433;SDS011;65265;53.200;6.080;2023-07-30T03:31:44;11.82;;;2.95;;
76433;SDS011;65265;53.200;6.080;2023-07-30T03:36:35;11.95;;;2.97;;
76433;SDS011;65265;53.200;6.080;2023-07-30T03:41:28;13.93;;;3.85;;
76433;SDS011;65265;53.200;6.080;2023-07-30T03:46:20;9.23;;;3.00;;
76433;SDS011;65265;53.200;6.080;2023-07-30T03:51:11;15.90;;;3.47;;
76433;SDS011;65265;53.200;6.080;2023-07-30T03:56:04;7.43;;;2.50;;
76433;SDS011;65265;53.200;6.080;2023-07-30T04:00:57;14.05;;;3.08;;
76433;SDS011;65265;53.200;6.080;2023-07-30T04:05:48;11.43;;;2.20;;
76433;SDS011;65265;53.200;6.080;2023-07-30T04:10:40;8.90;;;2.63;;
76433;SDS011;65265;53.200;6.080;2023-07-30T04:15:31;13.75;;;2.83;;
76433;SDS011;65265;53.200;6.080;2023-07-30T04:20:24;13.00;;;2.55;;
76433;SDS011;65265;53.200;6.080;2023-07-30T04:25:16;10.30;;;2.47;;
76433;SDS011;65265;53.200;6.080;2023-07-30T04:30:07;7.70;;;1.77;;
76433;SDS011;65265;53.200;6.080;2023-07-30T04:34:59;10.57;;;2.30;;
76433;SDS011;65265;53.200;6.080;2023-07-30T04:39:52;11.10;;;2.95;;
76433;SDS011;65265;53.200;6.080;2023-07-30T04:44:43;11.82;;;1.73;;
76433;SDS011;65265;53.200;6.080;2023-07-30T04:49:35;11.23;;;1.75;;
76433;SDS011;65265;53.200;6.080;2023-07-30T04:54:27;9.15;;;0.98;;
76433;SDS011;65265;53.200;6.080;2023-07-30T04:59:20;8.85;;;1.55;;
76433;SDS011;65265;53.200;6.080;2023-07-30T05:04:11;10.05;;;1.88;;
76433;SDS011;65265;53.200;6.080;2023-07-30T05:09:03;5.05;;;1.02;;
76433;SDS011;65265;53.200;6.080;2023-07-30T05:13:55;4.22;;;0.75;;
76433;SDS011;65265;53.200;6.080;2023-07-30T05:18:48;5.03;;;1.33;;
76433;SDS011;65265;53.200;6.080;2023-07-30T05:23:39;8.15;;;0.80;;
76433;SDS011;65265;53.200;6.080;2023-07-30T05:28:30;4.45;;;1.15;;
76433;SDS011;65265;53.200;6.080;2023-07-30T05:38:15;4.57;;;0.73;;
76433;SDS011;65265;53.200;6.080;2023-07-30T05:43:07;6.60;;;0.82;;
76433;SDS011;65265;53.200;6.080;2023-07-30T05:47:59;6.35;;;0.90;;
76433;SDS011;65265;53.200;6.080;2023-07-30T05:52:50;5.47;;;0.90;;
76433;SDS011;65265;53.200;6.080;2023-07-30T05:57:43;5.05;;;0.43;;
76433;SDS011;65265;53.200;6.080;2023-07-30T06:02:34;4.93;;;0.55;;
76433;SDS011;65265;53.200;6.080;2023-07-30T06:07:26;3.97;;;0.40;;
76433;SDS011;65265;53.200;6.080;2023-07-30T06:12:17;6.32;;;1.23;;
76433;SDS011;65265;53.200;6.080;2023-07-30T06:17:10;5.90;;;0.80;;
76433;SDS011;65265;53.200;6.080;2023-07-30T06:22:02;5.50;;;0.68;;
76433;SDS011;65265;53.200;6.080;2023-07-30T06:26:53;6.82;;;1.40;;
76433;SDS011;65265;53.200;6.080;2023-07-30T06:31:45;5.15;;;1.00;;
76433;SDS011;65265;53.200;6.080;2023-07-30T06:36:38;7.43;;;1.30;;
76433;SDS011;65265;53.200;6.080;2023-07-30T06:41:29;7.28;;;0.70;;
76433;SDS011;65265;53.200;6.080;2023-07-30T06:46:21;4.32;;;0.60;;
76433;SDS011;65265;53.200;6.080;2023-07-30T06:51:12;9.05;;;1.23;;
76433;SDS011;65265;53.200;6.080;2023-07-30T06:56:05;4.22;;;1.05;;
76433;SDS011;65265;53.200;6.080;2023-07-30T07:00:56;9.65;;;1.08;;
76433;SDS011;65265;53.200;6.080;2023-07-30T07:05:52;8.13;;;1.55;;
76433;SDS011;65265;53.200;6.080;2023-07-30T07:10:44;12.18;;;0.95;;
76433;SDS011;65265;53.200;6.080;2023-07-30T07:15:37;6.75;;;1.02;;
76433;SDS011;65265;53.200;6.080;2023-07-30T07:20:28;9.73;;;0.65;;
76433;SDS011;65265;53.200;6.080;2023-07-30T07:25:20;7.10;;;0.93;;
76433;SDS011;65265;53.200;6.080;2023-07-30T07:30:11;10.20;;;1.50;;
76433;SDS011;65265;53.200;6.080;2023-07-30T07:35:05;8.48;;;0.93;;
76433;SDS011;65265;53.200;6.080;2023-07-30T07:39:58;8.05;;;0.90;;
76433;SDS011;65265;53.200;6.080;2023-07-30T07:44:49;7.93;;;0.93;;
76433;SDS011;65265;53.200;6.080;2023-07-30T07:49:40;5.38;;;0.80;;
76433;SDS011;65265;53.200;6.080;2023-07-30T07:54:33;6.95;;;1.30;;
76433;SDS011;65265;53.200;6.080;2023-07-30T07:59:25;9.48;;;1.23;;
76433;SDS011;65265;53.200;6.080;2023-07-30T08:04:17;7.93;;;0.93;;
76433;SDS011;65265;53.200;6.080;2023-07-30T08:09:11;8.80;;;0.70;;
76433;SDS011;65265;53.200;6.080;2023-07-30T08:14:04;8.75;;;1.08;;
76433;SDS011;65265;53.200;6.080;2023-07-30T08:18:56;6.45;;;0.73;;
76433;SDS011;65265;53.200;6.080;2023-07-30T08:23:47;8.52;;;1.90;;
76433;SDS011;65265;53.200;6.080;2023-07-30T08:28:38;10.30;;;1.35;;
76433;SDS011;65265;53.200;6.080;2023-07-30T08:33:31;10.65;;;1.13;;
76433;SDS011;65265;53.200;6.080;2023-07-30T08:38:23;6.15;;;0.55;;
76433;SDS011;65265;53.200;6.080;2023-07-30T08:43:15;7.53;;;0.52;;
76433;SDS011;65265;53.200;6.080;2023-07-30T08:48:06;4.63;;;0.45;;
76433;SDS011;65265;53.200;6.080;2023-07-30T08:53:00;6.18;;;0.85;;
76433;SDS011;65265;53.200;6.080;2023-07-30T08:57:53;3.38;;;0.98;;
76433;SDS011;65265;53.200;6.080;2023-07-30T09:02:47;7.07;;;1.10;;
76433;SDS011;65265;53.200;6.080;2023-07-30T09:07:41;8.82;;;0.98;;
76433;SDS011;65265;53.200;6.080;2023-07-30T09:12:34;6.60;;;0.60;;
76433;SDS011;65265;53.200;6.080;2023-07-30T09:17:26;9.07;;;1.30;;
76433;SDS011;65265;53.200;6.080;2023-07-30T09:22:24;5.40;;;0.90;;
76433;SDS011;65265;53.200;6.080;2023-07-30T09:27:21;4.15;;;0.60;;
76433;SDS011;65265;53.200;6.080;2023-07-30T09:32:17;8.18;;;1.40;;
76433;SDS011;65265;53.200;6.080;2023-07-30T09:37:08;4.30;;;0.85;;
76433;SDS011;65265;53.200;6.080;2023-07-30T09:42:00;6.88;;;0.75;;
76433;SDS011;65265;53.200;6.080;2023-07-30T09:46:52;8.02;;;0.90;;
76433;SDS011;65265;53.200;6.080;2023-07-30T09:51:45;7.95;;;1.38;;
76433;SDS011;65265;53.200;6.080;2023-07-30T09:56:38;5.40;;;0.60;;
76433;SDS011;65265;53.200;6.080;2023-07-30T10:01:31;12.82;;;1.23;;
76433;SDS011;65265;53.200;6.080;2023-07-30T10:06:27;6.03;;;0.45;;
76433;SDS011;65265;53.200;6.080;2023-07-30T10:11:22;9.18;;;1.00;;
76433;SDS011;65265;53.200;6.080;2023-07-30T10:16:15;5.30;;;0.73;;
76433;SDS011;65265;53.200;6.080;2023-07-30T10:21:07;5.00;;;0.50;;
76433;SDS011;65265;53.200;6.080;2023-07-30T10:25:58;9.48;;;0.50;;
76433;SDS011;65265;53.200;6.080;2023-07-30T10:30:56;9.50;;;1.48;;
76433;SDS011;65265;53.200;6.080;2023-07-30T10:35:52;6.65;;;0.60;;
76433;SDS011;65265;53.200;6.080;2023-07-30T10:41:01;4.90;;;0.73;;
76433;SDS011;65265;53.200;6.080;2023-07-30T10:45:53;9.15;;;0.80;;
76433;SDS011;65265;53.200;6.080;2023-07-30T10:50:46;4.50;;;0.43;;
76433;SDS011;65265;53.200;6.080;2023-07-30T10:55:38;8.07;;;0.68;;
76433;SDS011;65265;53.200;6.080;2023-07-30T11:00:30;6.82;;;1.15;;
76433;SDS011;65265;53.200;6.080;2023-07-30T11:05:22;12.77;;;1.15;;
76433;SDS011;65265;53.200;6.080;2023-07-30T11:10:16;5.95;;;0.40;;
76433;SDS011;65265;53.200;6.080;2023-07-30T11:15:08;6.00;;;0.65;;
76433;SDS011;65265;53.200;6.080;2023-07-30T11:20:00;4.75;;;0.85;;
76433;SDS011;65265;53.200;6.080;2023-07-30T11:24:52;6.90;;;0.80;;
76433;SDS011;65265;53.200;6.080;2023-07-30T11:34:45;7.55;;;0.50;;
76433;SDS011;65265;53.200;6.080;2023-07-30T11:39:37;3.80;;;0.28;;
76433;SDS011;65265;53.200;6.080;2023-07-30T11:44:29;6.20;;;0.45;;
76433;SDS011;65265;53.200;6.080;2023-07-30T11:49:22;1.98;;;0.20;;
76433;SDS011;65265;53.200;6.080;2023-07-30T11:54:18;4.70;;;0.85;;
76433;SDS011;65265;53.200;6.080;2023-07-30T11:59:10;7.55;;;0.80;;
76433;SDS011;65265;53.200;6.080;2023-07-30T12:04:03;4.82;;;0.50;;
76433;SDS011;65265;53.200;6.080;2023-07-30T12:08:57;6.43;;;0.77;;
76433;SDS011;65265;53.200;6.080;2023-07-30T12:13:49;3.47;;;0.38;;
76433;SDS011;65265;53.200;6.080;2023-07-30T12:18:41;4.32;;;0.40;;
76433;SDS011;65265;53.200;6.080;2023-07-30T12:23:32;8.38;;;0.88;;
76433;SDS011;65265;53.200;6.080;2023-07-30T12:28:26;6.85;;;0.32;;
76433;SDS011;65265;53.200;6.080;2023-07-30T12:33:17;6.40;;;0.30;;
76433;SDS011;65265;53.200;6.080;2023-07-30T12:38:09;3.53;;;0.10;;
76433;SDS011;65265;53.200;6.080;2023-07-30T12:43:01;3.08;;;0.95;;
76433;SDS011;65265;53.200;6.080;2023-07-30T12:47:55;7.60;;;0.32;;
76433;SDS011;65265;53.200;6.080;2023-07-30T12:52:46;7.18;;;0.73;;
76433;SDS011;65265;53.200;6.080;2023-07-30T12:57:38;5.05;;;0.40;;
76433;SDS011;65265;53.200;6.080;2023-07-30T13:02:29;4.07;;;0.57;;
76433;SDS011;65265;53.200;6.080;2023-07-30T13:07:25;2.83;;;0.47;;
76433;SDS011;65265;53.200;6.080;2023-07-30T13:12:16;4.38;;;0.50;;
76433;SDS011;65265;53.200;6.080;2023-07-30T13:17:08;4.97;;;0.20;;
76433;SDS011;65265;53.200;6.080;2023-07-30T13:22:00;5.88;;;0.47;;
76433;SDS011;65265;53.200;6.080;2023-07-30T13:26:52;4.97;;;0.45;;
76433;SDS011;65265;53.200;6.080;2023-07-30T13:31:45;3.90;;;0.85;;
76433;SDS011;65265;53.200;6.080;2023-07-30T13:36:36;4.15;;;0.20;;
76433;SDS011;65265;53.200;6.080;2023-07-30T13:41:28;7.68;;;0.93;;
76433;SDS011;65265;53.200;6.080;2023-07-30T13:46:20;2.92;;;0.30;;
76433;SDS011;65265;53.200;6.080;2023-07-30T13:51:12;5.82;;;0.30;;
76433;SDS011;65265;53.200;6.080;2023-07-30T13:56:03;4.07;;;0.43;;
76433;SDS011;65265;53.200;6.080;2023-07-30T14:00:55;5.18;;;0.45;;
76433;SDS011;65265;53.200;6.080;2023-07-30T14:05:47;2.42;;;0.15;;
76433;SDS011;65265;53.200;6.080;2023-07-30T14:10:39;6.32;;;0.30;;
76433;SDS011;65265;53.200;6.080;2023-07-30T14:15:31;5.45;;;0.55;;
76433;SDS011;65265;53.200;6.080;2023-07-30T14:25:15;3.50;;;0.20;;
76433;SDS011;65265;53.200;6.080;2023-07-30T14:30:07;5.53;;;0.40;;
76433;SDS011;65265;53.200;6.080;2023-07-30T14:34:59;3.20;;;0.50;;
76433;SDS011;65265;53.200;6.080;2023-07-30T14:39:51;5.03;;;0.85;;
76433;SDS011;65265;53.200;6.080;2023-07-30T14:44:43;4.03;;;0.30;;
76433;SDS011;65265;53.200;6.080;2023-07-30T14:49:35;6.15;;;0.40;;
76433;SDS011;65265;53.200;6.080;2023-07-30T14:54:27;3.30;;;0.80;;
76433;SDS011;65265;53.200;6.080;2023-07-30T14:59:18;2.83;;;0.20;;
76433;SDS011;65265;53.200;6.080;2023-07-30T15:04:12;9.15;;;0.65;;
76433;SDS011;65265;53.200;6.080;2023-07-30T15:09:03;3.67;;;0.32;;
76433;SDS011;65265;53.200;6.080;2023-07-30T15:13:55;1.92;;;0.10;;
76433;SDS011;65265;53.200;6.080;2023-07-30T15:18:47;3.70;;;0.30;;
76433;SDS011;65265;53.200;6.080;2023-07-30T15:23:41;8.63;;;0.70;;
76433;SDS011;65265;53.200;6.080;2023-07-30T15:28:33;4.78;;;0.20;;
76433;SDS011;65265;53.200;6.080;2023-07-30T15:33:25;2.17;;;0.20;;
76433;SDS011;65265;53.200;6.080;2023-07-30T15:38:16;3.70;;;0.40;;
76433;SDS011;65265;53.200;6.080;2023-07-30T15:43:10;4.97;;;0.22;;
76433;SDS011;65265;53.200;6.080;2023-07-30T15:48:02;3.85;;;0.20;;
76433;SDS011;65265;53.200;6.080;2023-07-30T15:52:54;4.47;;;0.40;;
76433;SDS011;65265;53.200;6.080;2023-07-30T15:57:46;8.23;;;0.25;;
76433;SDS011;65265;53.200;6.080;2023-07-30T16:02:39;8.77;;;0.52;;
76433;SDS011;65265;53.200;6.080;2023-07-30T16:07:31;4.88;;;0.47;;
76433;SDS011;65265;53.200;6.080;2023-07-30T16:12:22;4.53;;;0.70;;
76433;SDS011;65265;53.200;6.080;2023-07-30T16:17:14;2.35;;;0.20;;
76433;SDS011;65265;53.200;6.080;2023-07-30T16:22:07;5.65;;;0.40;;
76433;SDS011;65265;53.200;6.080;2023-07-30T16:26:58;2.85;;;0.32;;
76433;SDS011;65265;53.200;6.080;2023-07-30T16:31:50;5.82;;;0.50;;
76433;SDS011;65265;53.200;6.080;2023-07-30T16:36:41;3.00;;;0.20;;
76433;SDS011;65265;53.200;6.080;2023-07-30T16:41:34;5.13;;;0.63;;
76433;SDS011;65265;53.200;6.080;2023-07-30T16:46:26;4.60;;;0.32;;
76433;SDS011;65265;53.200;6.080;2023-07-30T16:51:17;2.20;;;0.20;;
76433;SDS011;65265;53.200;6.080;2023-07-30T16:56:09;3.15;;;0.35;;
76433;SDS011;65265;53.200;6.080;2023-07-30T17:01:03;3.03;;;0.30;;
76433;SDS011;65265;53.200;6.080;2023-07-30T17:05:57;4.05;;;0.20;;
76433;SDS011;65265;53.200;6.080;2023-07-30T17:10:49;4.80;;;0.50;;
76433;SDS011;65265;53.200;6.080;2023-07-30T17:15:41;5.28;;;0.52;;
76433;SDS011;65265;53.200;6.080;2023-07-30T17:20:33;5.28;;;0.47;;
76433;SDS011;65265;53.200;6.080;2023-07-30T17:25:25;3.97;;;0.13;;
76433;SDS011;65265;53.200;6.080;2023-07-30T17:35:08;10.88;;;0.75;;
76433;SDS011;65265;53.200;6.080;2023-07-30T17:40:03;3.78;;;0.47;;
76433;SDS011;65265;53.200;6.080;2023-07-30T17:44:55;5.25;;;0.43;;
76433;SDS011;65265;53.200;6.080;2023-07-30T17:49:47;4.97;;;0.50;;
76433;SDS011;65265;53.200;6.080;2023-07-30T17:54:39;3.95;;;0.40;;
76433;SDS011;65265;53.200;6.080;2023-07-30T17:59:32;6.00;;;0.85;;
76433;SDS011;65265;53.200;6.080;2023-07-30T18:04:24;4.50;;;0.52;;
76433;SDS011;65265;53.200;6.080;2023-07-30T18:14:08;14.25;;;2.97;;
76433;SDS011;65265;53.200;6.080;2023-07-30T18:19:01;7.40;;;1.23;;
76433;SDS011;65265;53.200;6.080;2023-07-30T18:23:52;9.07;;;1.17;;
76433;SDS011;65265;53.200;6.080;2023-07-30T18:28:44;8.55;;;1.77;;
76433;SDS011;65265;53.200;6.080;2023-07-30T18:33:36;8.57;;;1.42;;
76433;SDS011;65265;53.200;6.080;2023-07-30T18:38:28;10.27;;;1.40;;
76433;SDS011;65265;53.200;6.080;2023-07-30T18:43:20;7.15;;;1.58;;
76433;SDS011;65265;53.200;6.080;2023-07-30T18:48:13;10.25;;;2.33;;
76433;SDS011;65265;53.200;6.080;2023-07-30T18:53:05;11.65;;;1.98;;
76433;SDS011;65265;53.200;6.080;2023-07-30T18:57:58;11.68;;;2.00;;
76433;SDS011;65265;53.200;6.080;2023-07-30T19:02:50;8.57;;;1.90;;
76433;SDS011;65265;53.200;6.080;2023-07-30T19:07:41;10.43;;;2.15;;
76433;SDS011;65265;53.200;6.080;2023-07-30T19:12:33;9.98;;;1.80;;
76433;SDS011;65265;53.200;6.080;2023-07-30T19:17:26;13.52;;;1.92;;
76433;SDS011;65265;53.200;6.080;2023-07-30T19:22:17;11.00;;;1.70;;
76433;SDS011;65265;53.200;6.080;2023-07-30T19:27:09;11.10;;;2.00;;
76433;SDS011;65265;53.200;6.080;2023-07-30T19:32:00;8.38;;;1.92;;
76433;SDS011;65265;53.200;6.080;2023-07-30T19:36:53;8.13;;;1.45;;
76433;SDS011;65265;53.200;6.080;2023-07-30T19:41:45;11.57;;;1.40;;
76433;SDS011;65265;53.200;6.080;2023-07-30T19:46:36;8.98;;;2.10;;
76433;SDS011;65265;53.200;6.080;2023-07-30T19:51:28;6.65;;;1.75;;
76433;SDS011;65265;53.200;6.080;2023-07-30T19:56:22;8.50;;;1.38;;
76433;SDS011;65265;53.200;6.080;2023-07-30T20:01:13;8.98;;;1.38;;
76433;SDS011;65265;53.200;6.080;2023-07-30T20:06:05;14.13;;;1.75;;
76433;SDS011;65265;53.200;6.080;2023-07-30T20:10:57;6.25;;;1.15;;
76433;SDS011;65265;53.200;6.080;2023-07-30T20:15:51;8.48;;;1.88;;
76433;SDS011;65265;53.200;6.080;2023-07-30T20:20:43;8.93;;;1.33;;
76433;SDS011;65265;53.200;6.080;2023-07-30T20:25:34;9.50;;;1.30;;
76433;SDS011;65265;53.200;6.080;2023-07-30T20:30:27;9.57;;;1.13;;
76433;SDS011;65265;53.200;6.080;2023-07-30T20:35:20;7.22;;;1.55;;
76433;SDS011;65265;53.200;6.080;2023-07-30T20:40:11;5.57;;;0.88;;
76433;SDS011;65265;53.200;6.080;2023-07-30T20:45:05;9.00;;;1.10;;
76433;SDS011;65265;53.200;6.080;2023-07-30T20:49:57;5.35;;;1.10;;
76433;SDS011;65265;53.200;6.080;2023-07-30T20:54:51;4.78;;;0.82;;
76433;SDS011;65265;53.200;6.080;2023-07-30T20:59:44;6.78;;;1.08;;
76433;SDS011;65265;53.200;6.080;2023-07-30T21:04:35;6.82;;;1.65;;
76433;SDS011;65265;53.200;6.080;2023-07-30T21:09:27;6.93;;;1.23;;
76433;SDS011;65265;53.200;6.080;2023-07-30T21:14:19;8.50;;;1.45;;
76433;SDS011;65265;53.200;6.080;2023-07-30T21:19:11;4.25;;;0.77;;
76433;SDS011;65265;53.200;6.080;2023-07-30T21:24:02;7.57;;;1.13;;
76433;SDS011;65265;53.200;6.080;2023-07-30T21:28:54;8.07;;;1.52;;
76433;SDS011;65265;53.200;6.080;2023-07-30T21:33:47;5.72;;;0.90;;
76433;SDS011;65265;53.200;6.080;2023-07-30T21:38:39;8.18;;;0.77;;
76433;SDS011;65265;53.200;6.080;2023-07-30T21:43:30;5.18;;;1.38;;
76433;SDS011;65265;53.200;6.080;2023-07-30T21:48:22;4.28;;;0.73;;
76433;SDS011;65265;53.200;6.080;2023-07-30T21:53:16;3.40;;;1.08;;
76433;SDS011;65265;53.200;6.080;2023-07-30T21:58:08;4.82;;;0.95;;
76433;SDS011;65265;53.200;6.080;2023-07-30T22:02:59;4.93;;;1.67;;
76433;SDS011;65265;53.200;6.080;2023-07-30T22:07:51;8.30;;;1.27;;
76433;SDS011;65265;53.200;6.080;2023-07-30T22:12:43;6.28;;;0.98;;
76433;SDS011;65265;53.200;6.080;2023-07-30T22:17:35;7.72;;;0.82;;
76433;SDS011;65265;53.200;6.080;2023-07-30T22:22:27;5.57;;;0.70;;
76433;SDS011;65265;53.200;6.080;2023-07-30T22:27:18;4.45;;;1.00;;
76433;SDS011;65265;53.200;6.080;2023-07-30T22:32:12;8.45;;;1.15;;
76433;SDS011;65265;53.200;6.080;2023-07-30T22:37:06;3.08;;;1.05;;
76433;SDS011;65265;53.200;6.080;2023-07-30T22:41:57;5.00;;;0.80;;
76433;SDS011;65265;53.200;6.080;2023-07-30T22:46:49;4.00;;;1.40;;
76433;SDS011;65265;53.200;6.080;2023-07-30T22:51:42;7.80;;;0.90;;
76433;SDS011;65265;53.200;6.080;2023-07-30T22:56:33;4.93;;;0.55;;
76433;SDS011;65265;53.200;6.080;2023-07-30T23:01:25;3.20;;;0.28;;
76433;SDS011;65265;53.200;6.080;2023-07-30T23:06:17;6.70;;;0.50;;
76433;SDS011;65265;53.200;6.080;2023-07-30T23:11:10;6.60;;;1.20;;
76433;SDS011;65265;53.200;6.080;2023-07-30T23:16:01;8.40;;;0.50;;
76433;SDS011;65265;53.200;6.080;2023-07-30T23:20:52;5.18;;;0.95;;
76433;SDS011;65265;53.200;6.080;2023-07-30T23:25:44;3.58;;;1.35;;
76433;SDS011;65265;53.200;6.080;2023-07-30T23:30:38;2.58;;;0.60;;
76433;SDS011;65265;53.200;6.080;2023-07-30T23:35:30;5.25;;;0.45;;
76433;SDS011;65265;53.200;6.080;2023-07-30T23:40:21;3.10;;;0.55;;
76433;SDS011;65265;53.200;6.080;2023-07-30T23:45:13;2.80;;;0.93;;
76433;SDS011;65265;53.200;6.080;2023-07-30T23:50:06;5.88;;;0.77;;
76433;SDS011;65265;53.200;6.080;2023-07-30T23:54:58;3.78;;;1.00;;
76433;SDS011;65265;53.200;6.080;2023-07-30T23:59:50;4.07;;;1.00;;
